sensor_id;sensor_type;location;lat;lon;timestamp;P1;durP1;ratioP1;P2;durP2;ratioP2
8260;SDS011;64115;50.170;8.242;2023-12-28T00:01:37;3.10;;;2.30;;
8260;SDS011;64115;50.170;8.242;2023-12-28T00:04:04;2.90;;;2.60;;
8260;SDS011;64115;50.170;8.242;2023-12-28T00:06:32;3.53;;;2.33;;
8260;SDS011;64115;50.170;8.242;2023-12-28T00:08:58;3.27;;;2.57;;
8260;SDS011;64115;50.170;8.242;2023-12-28T00:11:26;2.63;;;2.30;;
8260;SDS011;64115;50.170;8.242;2023-12-28T00:13:53;3.20;;;2.70;;
8260;SDS011;64115;50.170;8.242;2023-12-28T00:16:20;2.77;;;2.57;;
8260;SDS011;64115;50.170;8.242;2023-12-28T00:18:46;3.27;;;2.90;;
8260;SDS011;64115;50.170;8.242;2023-12-28T00:21:13;2.90;;;2.67;;
8260;SDS011;64115;50.170;8.242;2023-12-28T00:23:41;2.87;;;2.63;;
8260;SDS011;64115;50.170;8.242;2023-12-28T00:26:08;2.63;;;2.40;;
8260;SDS011;64115;50.170;8.242;2023-12-28T00:28:35;3.13;;;2.80;;
8260;SDS011;64115;50.170;8.242;2023-12-28T00:31:01;3.83;;;2.83;;
8260;SDS011;64115;50.170;8.242;2023-12-28T00:33:28;3.70;;;3.00;;
8260;SDS011;64115;50.170;8.242;2023-12-28T00:35:55;3.10;;;2.80;;
8260;SDS011;64115;50.170;8.242;2023-12-28T00:38:21;3.27;;;2.73;;
8260;SDS011;64115;50.170;8.242;2023-12-28T00:40:50;4.43;;;2.87;;
8260;SDS011;64115;50.170;8.242;2023-12-28T00:43:16;3.00;;;2.80;;
8260;SDS011;64115;50.170;8.242;2023-12-28T00:45:43;3.30;;;3.00;;
8260;SDS011;64115;50.170;8.242;2023-12-28T00:48:10;2.93;;;2.73;;
8260;SDS011;64115;50.170;8.242;2023-12-28T00:50:37;5.43;;;3.03;;
8260;SDS011;64115;50.170;8.242;2023-12-28T00:53:03;3.07;;;2.77;;
8260;SDS011;64115;50.170;8.242;2023-12-28T00:55:30;3.13;;;2.80;;
8260;SDS011;64115;50.170;8.242;2023-12-28T00:57:58;3.17;;;2.70;;
8260;SDS011;64115;50.170;8.242;2023-12-28T01:00:25;3.30;;;3.00;;
8260;SDS011;64115;50.170;8.242;2023-12-28T01:02:52;3.07;;;2.87;;
8260;SDS011;64115;50.170;8.242;2023-12-28T01:05:18;2.90;;;2.70;;
8260;SDS011;64115;50.170;8.242;2023-12-28T01:07:46;3.00;;;2.70;;
8260;SDS011;64115;50.170;8.242;2023-12-28T01:10:13;3.10;;;2.80;;
8260;SDS011;64115;50.170;8.242;2023-12-28T01:12:40;3.20;;;2.93;;
8260;SDS011;64115;50.170;8.242;2023-12-28T01:15:08;3.30;;;3.00;;
8260;SDS011;64115;50.170;8.242;2023-12-28T01:17:35;4.30;;;2.73;;
8260;SDS011;64115;50.170;8.242;2023-12-28T01:20:03;3.17;;;2.87;;
8260;SDS011;64115;50.170;8.242;2023-12-28T01:22:31;3.20;;;2.90;;
8260;SDS011;64115;50.170;8.242;2023-12-28T01:24:58;3.30;;;3.00;;
8260;SDS011;64115;50.170;8.242;2023-12-28T01:27:25;3.23;;;2.90;;
8260;SDS011;64115;50.170;8.242;2023-12-28T01:29:51;3.20;;;3.00;;
8260;SDS011;64115;50.170;8.242;2023-12-28T01:32:19;3.33;;;2.87;;
8260;SDS011;64115;50.170;8.242;2023-12-28T01:34:46;3.30;;;3.00;;
8260;SDS011;64115;50.170;8.242;2023-12-28T01:37:13;3.20;;;2.90;;
8260;SDS011;64115;50.170;8.242;2023-12-28T01:39:40;3.57;;;2.77;;
8260;SDS011;64115;50.170;8.242;2023-12-28T01:42:07;3.50;;;3.20;;
8260;SDS011;64115;50.170;8.242;2023-12-28T01:44:33;3.60;;;3.33;;
8260;SDS011;64115;50.170;8.242;2023-12-28T01:47:00;4.33;;;3.80;;
8260;SDS011;64115;50.170;8.242;2023-12-28T01:49:28;3.60;;;3.30;;
8260;SDS011;64115;50.170;8.242;2023-12-28T01:51:55;3.50;;;3.20;;
8260;SDS011;64115;50.170;8.242;2023-12-28T01:54:24;4.03;;;2.93;;
8260;SDS011;64115;50.170;8.242;2023-12-28T01:56:51;3.30;;;3.00;;
8260;SDS011;64115;50.170;8.242;2023-12-28T01:59:18;3.13;;;2.90;;
8260;SDS011;64115;50.170;8.242;2023-12-28T02:01:45;3.47;;;3.17;;
8260;SDS011;64115;50.170;8.242;2023-12-28T02:04:12;3.30;;;3.00;;
8260;SDS011;64115;50.170;8.242;2023-12-28T02:06:40;3.43;;;3.00;;
8260;SDS011;64115;50.170;8.242;2023-12-28T02:09:07;2.67;;;2.47;;
8260;SDS011;64115;50.170;8.242;2023-12-28T02:11:34;5.60;;;3.43;;
8260;SDS011;64115;50.170;8.242;2023-12-28T02:14:01;3.30;;;2.97;;
8260;SDS011;64115;50.170;8.242;2023-12-28T02:16:29;3.30;;;3.03;;
8260;SDS011;64115;50.170;8.242;2023-12-28T02:19:00;3.30;;;3.00;;
8260;SDS011;64115;50.170;8.242;2023-12-28T02:21:35;3.13;;;2.83;;
8260;SDS011;64115;50.170;8.242;2023-12-28T02:24:04;4.20;;;3.23;;
8260;SDS011;64115;50.170;8.242;2023-12-28T02:26:32;3.50;;;2.80;;
8260;SDS011;64115;50.170;8.242;2023-12-28T02:28:59;3.27;;;3.00;;
8260;SDS011;64115;50.170;8.242;2023-12-28T02:31:26;5.10;;;2.80;;
8260;SDS011;64115;50.170;8.242;2023-12-28T02:34:04;4.20;;;2.50;;
8260;SDS011;64115;50.170;8.242;2023-12-28T02:36:35;3.03;;;2.80;;
8260;SDS011;64115;50.170;8.242;2023-12-28T02:39:05;3.00;;;2.70;;
8260;SDS011;64115;50.170;8.242;2023-12-28T02:41:34;2.97;;;2.67;;
8260;SDS011;64115;50.170;8.242;2023-12-28T02:44:01;2.80;;;2.60;;
8260;SDS011;64115;50.170;8.242;2023-12-28T02:46:28;2.57;;;2.37;;
8260;SDS011;64115;50.170;8.242;2023-12-28T02:48:55;3.10;;;2.80;;
8260;SDS011;64115;50.170;8.242;2023-12-28T02:51:24;2.90;;;2.70;;
8260;SDS011;64115;50.170;8.242;2023-12-28T02:53:51;2.80;;;2.57;;
8260;SDS011;64115;50.170;8.242;2023-12-28T02:56:18;3.00;;;2.80;;
8260;SDS011;64115;50.170;8.242;2023-12-28T02:58:46;3.33;;;2.97;;
8260;SDS011;64115;50.170;8.242;2023-12-28T03:01:13;3.33;;;3.00;;
8260;SDS011;64115;50.170;8.242;2023-12-28T03:03:39;3.50;;;2.70;;
8260;SDS011;64115;50.170;8.242;2023-12-28T03:06:06;3.87;;;3.33;;
8260;SDS011;64115;50.170;8.242;2023-12-28T03:08:33;3.60;;;3.23;;
8260;SDS011;64115;50.170;8.242;2023-12-28T03:11:00;3.23;;;2.93;;
8260;SDS011;64115;50.170;8.242;2023-12-28T03:13:27;3.30;;;3.00;;
8260;SDS011;64115;50.170;8.242;2023-12-28T03:15:55;3.60;;;3.27;;
8260;SDS011;64115;50.170;8.242;2023-12-28T03:18:21;3.33;;;3.03;;
8260;SDS011;64115;50.170;8.242;2023-12-28T03:20:48;3.53;;;3.10;;
8260;SDS011;64115;50.170;8.242;2023-12-28T03:23:15;3.30;;;3.00;;
8260;SDS011;64115;50.170;8.242;2023-12-28T03:25:42;3.53;;;2.90;;
8260;SDS011;64115;50.170;8.242;2023-12-28T03:28:08;3.00;;;2.77;;
8260;SDS011;64115;50.170;8.242;2023-12-28T03:30:35;3.13;;;2.70;;
8260;SDS011;64115;50.170;8.242;2023-12-28T03:33:04;3.30;;;3.00;;
8260;SDS011;64115;50.170;8.242;2023-12-28T03:35:30;3.20;;;2.83;;
8260;SDS011;64115;50.170;8.242;2023-12-28T03:37:57;3.20;;;3.00;;
8260;SDS011;64115;50.170;8.242;2023-12-28T03:40:24;6.33;;;2.97;;
8260;SDS011;64115;50.170;8.242;2023-12-28T03:42:51;2.97;;;2.67;;
8260;SDS011;64115;50.170;8.242;2023-12-28T03:45:17;2.60;;;2.40;;
8260;SDS011;64115;50.170;8.242;2023-12-28T03:47:45;2.73;;;2.53;;
8260;SDS011;64115;50.170;8.242;2023-12-28T03:50:13;2.63;;;2.43;;
8260;SDS011;64115;50.170;8.242;2023-12-28T03:52:40;3.20;;;2.90;;
8260;SDS011;64115;50.170;8.242;2023-12-28T03:55:07;2.97;;;2.67;;
8260;SDS011;64115;50.170;8.242;2023-12-28T03:57:34;3.03;;;2.83;;
8260;SDS011;64115;50.170;8.242;2023-12-28T04:00:00;2.90;;;2.70;;
8260;SDS011;64115;50.170;8.242;2023-12-28T04:02:27;3.20;;;2.90;;
8260;SDS011;64115;50.170;8.242;2023-12-28T04:04:56;3.40;;;3.10;;
8260;SDS011;64115;50.170;8.242;2023-12-28T04:07:25;2.93;;;2.70;;
8260;SDS011;64115;50.170;8.242;2023-12-28T04:09:52;2.93;;;2.73;;
8260;SDS011;64115;50.170;8.242;2023-12-28T04:12:19;3.07;;;2.77;;
8260;SDS011;64115;50.170;8.242;2023-12-28T04:14:46;3.70;;;2.87;;
8260;SDS011;64115;50.170;8.242;2023-12-28T04:17:13;3.07;;;2.80;;
8260;SDS011;64115;50.170;8.242;2023-12-28T04:19:40;3.03;;;2.80;;
8260;SDS011;64115;50.170;8.242;2023-12-28T04:22:06;3.20;;;2.90;;
8260;SDS011;64115;50.170;8.242;2023-12-28T04:24:34;3.23;;;2.93;;
8260;SDS011;64115;50.170;8.242;2023-12-28T04:27:03;3.83;;;3.10;;
8260;SDS011;64115;50.170;8.242;2023-12-28T04:29:30;3.37;;;3.07;;
8260;SDS011;64115;50.170;8.242;2023-12-28T04:31:56;3.40;;;3.10;;
8260;SDS011;64115;50.170;8.242;2023-12-28T04:34:23;3.63;;;3.33;;
8260;SDS011;64115;50.170;8.242;2023-12-28T04:36:50;3.63;;;3.30;;
8260;SDS011;64115;50.170;8.242;2023-12-28T04:39:17;4.10;;;3.33;;
8260;SDS011;64115;50.170;8.242;2023-12-28T04:41:45;4.13;;;3.20;;
8260;SDS011;64115;50.170;8.242;2023-12-28T04:44:12;3.37;;;3.07;;
8260;SDS011;64115;50.170;8.242;2023-12-28T04:46:39;4.27;;;3.23;;
8260;SDS011;64115;50.170;8.242;2023-12-28T04:49:07;6.57;;;3.23;;
8260;SDS011;64115;50.170;8.242;2023-12-28T04:51:34;4.03;;;3.67;;
8260;SDS011;64115;50.170;8.242;2023-12-28T04:54:01;3.67;;;3.37;;
8260;SDS011;64115;50.170;8.242;2023-12-28T04:56:28;4.60;;;3.57;;
8260;SDS011;64115;50.170;8.242;2023-12-28T04:58:56;4.40;;;3.93;;
8260;SDS011;64115;50.170;8.242;2023-12-28T05:01:22;4.33;;;3.50;;
8260;SDS011;64115;50.170;8.242;2023-12-28T05:03:50;3.70;;;3.40;;
8260;SDS011;64115;50.170;8.242;2023-12-28T05:06:16;4.27;;;3.93;;
8260;SDS011;64115;50.170;8.242;2023-12-28T05:08:43;4.83;;;4.30;;
8260;SDS011;64115;50.170;8.242;2023-12-28T05:11:10;4.63;;;4.20;;
8260;SDS011;64115;50.170;8.242;2023-12-28T05:13:37;4.60;;;4.20;;
8260;SDS011;64115;50.170;8.242;2023-12-28T05:16:05;4.53;;;4.13;;
8260;SDS011;64115;50.170;8.242;2023-12-28T05:18:32;4.83;;;4.30;;
8260;SDS011;64115;50.170;8.242;2023-12-28T05:20:59;4.43;;;4.03;;
8260;SDS011;64115;50.170;8.242;2023-12-28T05:23:26;4.70;;;4.30;;
8260;SDS011;64115;50.170;8.242;2023-12-28T05:25:52;5.03;;;4.60;;
8260;SDS011;64115;50.170;8.242;2023-12-28T05:28:19;5.37;;;4.87;;
8260;SDS011;64115;50.170;8.242;2023-12-28T05:30:46;5.27;;;4.77;;
8260;SDS011;64115;50.170;8.242;2023-12-28T05:33:14;6.27;;;4.80;;
8260;SDS011;64115;50.170;8.242;2023-12-28T05:35:41;5.83;;;5.23;;
8260;SDS011;64115;50.170;8.242;2023-12-28T05:38:08;5.53;;;5.00;;
8260;SDS011;64115;50.170;8.242;2023-12-28T05:40:35;6.27;;;5.17;;
8260;SDS011;64115;50.170;8.242;2023-12-28T05:43:01;5.53;;;5.03;;
8260;SDS011;64115;50.170;8.242;2023-12-28T05:45:28;5.93;;;5.33;;
8260;SDS011;64115;50.170;8.242;2023-12-28T05:47:55;6.40;;;5.80;;
8260;SDS011;64115;50.170;8.242;2023-12-28T05:50:23;6.27;;;5.63;;
8260;SDS011;64115;50.170;8.242;2023-12-28T05:52:50;6.67;;;6.07;;
8260;SDS011;64115;50.170;8.242;2023-12-28T05:55:16;8.17;;;6.10;;
8260;SDS011;64115;50.170;8.242;2023-12-28T05:57:43;7.00;;;6.40;;
8260;SDS011;64115;50.170;8.242;2023-12-28T06:00:10;9.10;;;6.33;;
8260;SDS011;64115;50.170;8.242;2023-12-28T06:02:38;6.80;;;6.20;;
8260;SDS011;64115;50.170;8.242;2023-12-28T06:05:05;6.73;;;6.13;;
8260;SDS011;64115;50.170;8.242;2023-12-28T06:07:34;7.40;;;6.43;;
8260;SDS011;64115;50.170;8.242;2023-12-28T06:10:00;6.77;;;6.17;;
8260;SDS011;64115;50.170;8.242;2023-12-28T06:12:27;7.47;;;6.73;;
8260;SDS011;64115;50.170;8.242;2023-12-28T06:14:54;7.10;;;6.40;;
8260;SDS011;64115;50.170;8.242;2023-12-28T06:17:21;6.57;;;6.00;;
8260;SDS011;64115;50.170;8.242;2023-12-28T06:19:48;6.23;;;5.73;;
8260;SDS011;64115;50.170;8.242;2023-12-28T06:22:15;6.83;;;6.20;;
8260;SDS011;64115;50.170;8.242;2023-12-28T06:24:43;6.97;;;6.30;;
8260;SDS011;64115;50.170;8.242;2023-12-28T06:27:10;6.63;;;6.03;;
8260;SDS011;64115;50.170;8.242;2023-12-28T06:29:37;6.73;;;6.13;;
8260;SDS011;64115;50.170;8.242;2023-12-28T06:32:04;6.93;;;6.23;;
8260;SDS011;64115;50.170;8.242;2023-12-28T06:34:32;7.07;;;6.27;;
8260;SDS011;64115;50.170;8.242;2023-12-28T06:36:58;7.83;;;6.30;;
8260;SDS011;64115;50.170;8.242;2023-12-28T06:39:26;7.17;;;6.57;;
8260;SDS011;64115;50.170;8.242;2023-12-28T06:41:54;7.93;;;6.47;;
8260;SDS011;64115;50.170;8.242;2023-12-28T06:44:21;7.87;;;7.07;;
8260;SDS011;64115;50.170;8.242;2023-12-28T06:46:48;6.93;;;6.33;;
8260;SDS011;64115;50.170;8.242;2023-12-28T06:49:15;7.13;;;6.53;;
8260;SDS011;64115;50.170;8.242;2023-12-28T06:51:41;6.30;;;5.70;;
8260;SDS011;64115;50.170;8.242;2023-12-28T06:54:11;8.07;;;6.13;;
8260;SDS011;64115;50.170;8.242;2023-12-28T06:56:38;8.20;;;5.80;;
8260;SDS011;64115;50.170;8.242;2023-12-28T06:59:06;6.30;;;5.70;;
8260;SDS011;64115;50.170;8.242;2023-12-28T07:01:36;6.07;;;5.50;;
8260;SDS011;64115;50.170;8.242;2023-12-28T07:04:03;5.77;;;4.97;;
8260;SDS011;64115;50.170;8.242;2023-12-28T07:06:30;5.57;;;5.07;;
8260;SDS011;64115;50.170;8.242;2023-12-28T07:08:57;5.33;;;4.63;;
8260;SDS011;64115;50.170;8.242;2023-12-28T07:11:24;5.10;;;4.70;;
8260;SDS011;64115;50.170;8.242;2023-12-28T07:13:51;4.87;;;4.43;;
8260;SDS011;64115;50.170;8.242;2023-12-28T07:16:19;5.10;;;4.67;;
8260;SDS011;64115;50.170;8.242;2023-12-28T07:18:46;5.00;;;4.60;;
8260;SDS011;64115;50.170;8.242;2023-12-28T07:21:12;4.43;;;4.13;;
8260;SDS011;64115;50.170;8.242;2023-12-28T07:23:39;5.07;;;4.67;;
8260;SDS011;64115;50.170;8.242;2023-12-28T07:26:05;4.50;;;4.20;;
8260;SDS011;64115;50.170;8.242;2023-12-28T07:28:32;6.83;;;4.50;;
8260;SDS011;64115;50.170;8.242;2023-12-28T07:30:59;4.73;;;4.33;;
8260;SDS011;64115;50.170;8.242;2023-12-28T07:33:27;5.13;;;4.63;;
8260;SDS011;64115;50.170;8.242;2023-12-28T07:35:54;4.63;;;4.13;;
8260;SDS011;64115;50.170;8.242;2023-12-28T07:38:20;4.63;;;4.30;;
8260;SDS011;64115;50.170;8.242;2023-12-28T07:40:47;4.87;;;4.40;;
8260;SDS011;64115;50.170;8.242;2023-12-28T07:43:14;4.80;;;4.40;;
8260;SDS011;64115;50.170;8.242;2023-12-28T07:45:41;6.13;;;4.43;;
8260;SDS011;64115;50.170;8.242;2023-12-28T07:48:08;5.00;;;4.60;;
8260;SDS011;64115;50.170;8.242;2023-12-28T07:50:36;4.60;;;4.30;;
8260;SDS011;64115;50.170;8.242;2023-12-28T07:53:03;4.80;;;4.40;;
8260;SDS011;64115;50.170;8.242;2023-12-28T07:55:30;4.53;;;4.13;;
8260;SDS011;64115;50.170;8.242;2023-12-28T07:57:56;6.63;;;5.07;;
8260;SDS011;64115;50.170;8.242;2023-12-28T08:00:23;5.30;;;4.80;;
8260;SDS011;64115;50.170;8.242;2023-12-28T08:02:50;5.23;;;4.20;;
8260;SDS011;64115;50.170;8.242;2023-12-28T08:05:17;5.17;;;4.43;;
8260;SDS011;64115;50.170;8.242;2023-12-28T08:07:45;4.60;;;4.20;;
8260;SDS011;64115;50.170;8.242;2023-12-28T08:10:12;5.93;;;4.30;;
8260;SDS011;64115;50.170;8.242;2023-12-28T08:12:38;4.23;;;3.93;;
8260;SDS011;64115;50.170;8.242;2023-12-28T08:15:06;4.20;;;3.80;;
8260;SDS011;64115;50.170;8.242;2023-12-28T08:17:34;5.63;;;3.50;;
8260;SDS011;64115;50.170;8.242;2023-12-28T08:20:00;4.07;;;3.67;;
8260;SDS011;64115;50.170;8.242;2023-12-28T08:22:27;4.43;;;4.00;;
8260;SDS011;64115;50.170;8.242;2023-12-28T08:24:56;4.33;;;3.93;;
8260;SDS011;64115;50.170;8.242;2023-12-28T08:27:23;4.40;;;4.00;;
8260;SDS011;64115;50.170;8.242;2023-12-28T08:29:50;4.60;;;4.17;;
8260;SDS011;64115;50.170;8.242;2023-12-28T08:32:18;5.93;;;4.83;;
8260;SDS011;64115;50.170;8.242;2023-12-28T08:34:45;5.37;;;4.00;;
8260;SDS011;64115;50.170;8.242;2023-12-28T08:37:12;5.67;;;4.73;;
8260;SDS011;64115;50.170;8.242;2023-12-28T08:39:39;4.80;;;4.30;;
8260;SDS011;64115;50.170;8.242;2023-12-28T08:42:07;6.93;;;4.40;;
8260;SDS011;64115;50.170;8.242;2023-12-28T08:44:34;4.27;;;3.97;;
8260;SDS011;64115;50.170;8.242;2023-12-28T08:47:01;4.83;;;4.17;;
8260;SDS011;64115;50.170;8.242;2023-12-28T08:49:27;4.50;;;4.10;;
8260;SDS011;64115;50.170;8.242;2023-12-28T08:51:55;5.53;;;4.13;;
8260;SDS011;64115;50.170;8.242;2023-12-28T08:54:21;5.50;;;4.30;;
8260;SDS011;64115;50.170;8.242;2023-12-28T08:56:48;5.03;;;4.00;;
8260;SDS011;64115;50.170;8.242;2023-12-28T08:59:17;4.57;;;3.60;;
8260;SDS011;64115;50.170;8.242;2023-12-28T09:01:43;4.20;;;3.80;;
8260;SDS011;64115;50.170;8.242;2023-12-28T09:04:10;4.50;;;4.10;;
8260;SDS011;64115;50.170;8.242;2023-12-28T09:06:39;3.70;;;3.40;;
8260;SDS011;64115;50.170;8.242;2023-12-28T09:09:05;5.07;;;3.50;;
8260;SDS011;64115;50.170;8.242;2023-12-28T09:11:32;4.57;;;3.17;;
8260;SDS011;64115;50.170;8.242;2023-12-28T09:13:59;5.43;;;3.00;;
8260;SDS011;64115;50.170;8.242;2023-12-28T09:16:27;3.87;;;2.67;;
8260;SDS011;64115;50.170;8.242;2023-12-28T09:18:54;3.00;;;2.50;;
8260;SDS011;64115;50.170;8.242;2023-12-28T09:21:22;2.43;;;2.27;;
8260;SDS011;64115;50.170;8.242;2023-12-28T09:23:48;2.13;;;2.03;;
8260;SDS011;64115;50.170;8.242;2023-12-28T09:26:15;3.07;;;2.37;;
8260;SDS011;64115;50.170;8.242;2023-12-28T09:28:43;3.33;;;2.67;;
8260;SDS011;64115;50.170;8.242;2023-12-28T09:31:10;2.37;;;2.17;;
8260;SDS011;64115;50.170;8.242;2023-12-28T09:33:38;2.60;;;2.20;;
8260;SDS011;64115;50.170;8.242;2023-12-28T09:36:05;2.30;;;2.07;;
8260;SDS011;64115;50.170;8.242;2023-12-28T09:38:33;3.20;;;2.60;;
8260;SDS011;64115;50.170;8.242;2023-12-28T09:41:08;2.50;;;2.30;;
8260;SDS011;64115;50.170;8.242;2023-12-28T09:43:40;2.60;;;2.40;;
8260;SDS011;64115;50.170;8.242;2023-12-28T09:46:12;2.83;;;2.33;;
8260;SDS011;64115;50.170;8.242;2023-12-28T09:48:40;2.73;;;2.30;;
8260;SDS011;64115;50.170;8.242;2023-12-28T09:51:07;2.70;;;2.10;;
8260;SDS011;64115;50.170;8.242;2023-12-28T09:53:36;2.77;;;2.30;;
8260;SDS011;64115;50.170;8.242;2023-12-28T09:56:03;3.63;;;2.00;;
8260;SDS011;64115;50.170;8.242;2023-12-28T09:58:31;2.93;;;2.30;;
8260;SDS011;64115;50.170;8.242;2023-12-28T10:01:01;2.70;;;2.27;;
8260;SDS011;64115;50.170;8.242;2023-12-28T10:03:29;2.57;;;2.37;;
8260;SDS011;64115;50.170;8.242;2023-12-28T10:05:57;3.23;;;2.07;;
8260;SDS011;64115;50.170;8.242;2023-12-28T10:08:24;3.80;;;1.90;;
8260;SDS011;64115;50.170;8.242;2023-12-28T10:10:50;2.43;;;2.00;;
8260;SDS011;64115;50.170;8.242;2023-12-28T10:13:19;2.47;;;2.27;;
8260;SDS011;64115;50.170;8.242;2023-12-28T10:15:46;2.53;;;2.33;;
8260;SDS011;64115;50.170;8.242;2023-12-28T10:18:16;2.10;;;1.90;;
8260;SDS011;64115;50.170;8.242;2023-12-28T10:20:47;2.60;;;2.40;;
8260;SDS011;64115;50.170;8.242;2023-12-28T10:23:16;2.53;;;2.33;;
8260;SDS011;64115;50.170;8.242;2023-12-28T10:25:43;3.13;;;2.30;;
8260;SDS011;64115;50.170;8.242;2023-12-28T10:28:11;4.83;;;2.47;;
8260;SDS011;64115;50.170;8.242;2023-12-28T10:30:38;2.77;;;2.50;;
8260;SDS011;64115;50.170;8.242;2023-12-28T10:33:05;2.67;;;2.47;;
8260;SDS011;64115;50.170;8.242;2023-12-28T10:35:32;3.83;;;2.57;;
8260;SDS011;64115;50.170;8.242;2023-12-28T10:37:59;4.37;;;2.70;;
8260;SDS011;64115;50.170;8.242;2023-12-28T10:40:29;2.67;;;2.20;;
8260;SDS011;64115;50.170;8.242;2023-12-28T10:42:57;3.93;;;2.70;;
8260;SDS011;64115;50.170;8.242;2023-12-28T10:45:26;2.47;;;2.27;;
8260;SDS011;64115;50.170;8.242;2023-12-28T10:47:58;3.50;;;2.40;;
8260;SDS011;64115;50.170;8.242;2023-12-28T10:50:30;2.20;;;2.00;;
8260;SDS011;64115;50.170;8.242;2023-12-28T10:53:05;3.23;;;2.40;;
8260;SDS011;64115;50.170;8.242;2023-12-28T10:55:40;2.63;;;2.10;;
8260;SDS011;64115;50.170;8.242;2023-12-28T10:58:16;3.70;;;2.20;;
8260;SDS011;64115;50.170;8.242;2023-12-28T11:00:49;4.77;;;2.37;;
8260;SDS011;64115;50.170;8.242;2023-12-28T11:03:21;2.33;;;2.10;;
8260;SDS011;64115;50.170;8.242;2023-12-28T11:05:53;2.77;;;1.87;;
8260;SDS011;64115;50.170;8.242;2023-12-28T11:08:22;2.03;;;1.83;;
8260;SDS011;64115;50.170;8.242;2023-12-28T11:10:50;1.97;;;1.77;;
8260;SDS011;64115;50.170;8.242;2023-12-28T11:13:18;2.03;;;1.50;;
8260;SDS011;64115;50.170;8.242;2023-12-28T11:15:47;2.27;;;1.87;;
8260;SDS011;64115;50.170;8.242;2023-12-28T11:18:16;2.50;;;1.63;;
8260;SDS011;64115;50.170;8.242;2023-12-28T11:20:43;2.10;;;1.60;;
8260;SDS011;64115;50.170;8.242;2023-12-28T11:23:11;1.90;;;1.60;;
8260;SDS011;64115;50.170;8.242;2023-12-28T11:25:38;2.70;;;1.40;;
8260;SDS011;64115;50.170;8.242;2023-12-28T11:28:10;3.60;;;1.43;;
8260;SDS011;64115;50.170;8.242;2023-12-28T11:30:37;2.57;;;1.43;;
8260;SDS011;64115;50.170;8.242;2023-12-28T11:33:04;4.03;;;1.63;;
8260;SDS011;64115;50.170;8.242;2023-12-28T11:35:33;2.53;;;1.60;;
8260;SDS011;64115;50.170;8.242;2023-12-28T11:38:03;2.27;;;1.17;;
8260;SDS011;64115;50.170;8.242;2023-12-28T11:40:39;4.10;;;1.60;;
8260;SDS011;64115;50.170;8.242;2023-12-28T11:43:15;1.77;;;1.60;;
8260;SDS011;64115;50.170;8.242;2023-12-28T11:45:47;1.53;;;1.30;;
8260;SDS011;64115;50.170;8.242;2023-12-28T11:48:21;1.50;;;1.23;;
8260;SDS011;64115;50.170;8.242;2023-12-28T11:50:50;2.27;;;1.40;;
8260;SDS011;64115;50.170;8.242;2023-12-28T11:53:17;1.70;;;1.60;;
8260;SDS011;64115;50.170;8.242;2023-12-28T11:55:45;1.57;;;1.47;;
8260;SDS011;64115;50.170;8.242;2023-12-28T11:58:12;2.03;;;1.40;;
8260;SDS011;64115;50.170;8.242;2023-12-28T12:00:40;1.57;;;1.37;;
8260;SDS011;64115;50.170;8.242;2023-12-28T12:03:09;1.60;;;1.47;;
8260;SDS011;64115;50.170;8.242;2023-12-28T12:05:36;1.70;;;1.40;;
8260;SDS011;64115;50.170;8.242;2023-12-28T12:08:03;3.50;;;1.50;;
8260;SDS011;64115;50.170;8.242;2023-12-28T12:10:30;3.13;;;1.63;;
8260;SDS011;64115;50.170;8.242;2023-12-28T12:12:57;2.97;;;1.40;;
8260;SDS011;64115;50.170;8.242;2023-12-28T12:15:25;2.47;;;1.70;;
8260;SDS011;64115;50.170;8.242;2023-12-28T12:17:55;2.90;;;1.80;;
8260;SDS011;64115;50.170;8.242;2023-12-28T12:20:22;2.50;;;1.90;;
8260;SDS011;64115;50.170;8.242;2023-12-28T12:22:49;2.50;;;1.70;;
8260;SDS011;64115;50.170;8.242;2023-12-28T12:25:17;2.13;;;1.40;;
8260;SDS011;64115;50.170;8.242;2023-12-28T12:27:44;1.23;;;1.10;;
8260;SDS011;64115;50.170;8.242;2023-12-28T12:30:11;3.43;;;1.40;;
8260;SDS011;64115;50.170;8.242;2023-12-28T12:32:39;1.50;;;1.40;;
8260;SDS011;64115;50.170;8.242;2023-12-28T12:35:09;2.10;;;1.30;;
8260;SDS011;64115;50.170;8.242;2023-12-28T12:37:36;2.60;;;1.43;;
8260;SDS011;64115;50.170;8.242;2023-12-28T12:40:04;1.83;;;1.37;;
8260;SDS011;64115;50.170;8.242;2023-12-28T12:42:32;2.93;;;1.57;;
8260;SDS011;64115;50.170;8.242;2023-12-28T12:44:59;4.77;;;1.60;;
8260;SDS011;64115;50.170;8.242;2023-12-28T12:47:31;2.27;;;1.20;;
8260;SDS011;64115;50.170;8.242;2023-12-28T12:49:59;2.50;;;1.43;;
8260;SDS011;64115;50.170;8.242;2023-12-28T12:52:28;1.87;;;1.37;;
8260;SDS011;64115;50.170;8.242;2023-12-28T12:54:56;1.83;;;1.30;;
8260;SDS011;64115;50.170;8.242;2023-12-28T12:57:24;2.20;;;1.70;;
8260;SDS011;64115;50.170;8.242;2023-12-28T12:59:51;3.60;;;1.80;;
8260;SDS011;64115;50.170;8.242;2023-12-28T13:02:18;2.30;;;1.20;;
8260;SDS011;64115;50.170;8.242;2023-12-28T13:04:48;3.50;;;1.60;;
8260;SDS011;64115;50.170;8.242;2023-12-28T13:07:17;4.13;;;1.60;;
8260;SDS011;64115;50.170;8.242;2023-12-28T13:09:46;4.53;;;1.90;;
8260;SDS011;64115;50.170;8.242;2023-12-28T13:12:13;2.37;;;1.90;;
8260;SDS011;64115;50.170;8.242;2023-12-28T13:14:39;2.33;;;1.50;;
8260;SDS011;64115;50.170;8.242;2023-12-28T13:17:06;1.77;;;1.40;;
8260;SDS011;64115;50.170;8.242;2023-12-28T13:19:33;2.10;;;1.50;;
8260;SDS011;64115;50.170;8.242;2023-12-28T13:22:00;2.00;;;1.47;;
8260;SDS011;64115;50.170;8.242;2023-12-28T13:24:26;2.13;;;1.50;;
8260;SDS011;64115;50.170;8.242;2023-12-28T13:26:55;3.50;;;1.60;;
8260;SDS011;64115;50.170;8.242;2023-12-28T13:29:22;2.20;;;1.50;;
8260;SDS011;64115;50.170;8.242;2023-12-28T13:31:49;5.90;;;1.80;;
8260;SDS011;64115;50.170;8.242;2023-12-28T13:34:16;3.03;;;1.60;;
8260;SDS011;64115;50.170;8.242;2023-12-28T13:36:44;1.93;;;1.60;;
8260;SDS011;64115;50.170;8.242;2023-12-28T13:39:11;2.43;;;1.83;;
8260;SDS011;64115;50.170;8.242;2023-12-28T13:41:39;3.57;;;1.80;;
8260;SDS011;64115;50.170;8.242;2023-12-28T13:44:08;3.67;;;1.80;;
8260;SDS011;64115;50.170;8.242;2023-12-28T13:46:37;1.80;;;1.70;;
8260;SDS011;64115;50.170;8.242;2023-12-28T13:49:04;2.03;;;1.60;;
8260;SDS011;64115;50.170;8.242;2023-12-28T13:51:32;2.70;;;2.03;;
8260;SDS011;64115;50.170;8.242;2023-12-28T13:53:59;2.03;;;1.83;;
8260;SDS011;64115;50.170;8.242;2023-12-28T13:56:26;4.77;;;1.87;;
8260;SDS011;64115;50.170;8.242;2023-12-28T13:58:53;2.27;;;1.80;;
8260;SDS011;64115;50.170;8.242;2023-12-28T14:01:21;2.10;;;1.90;;
8260;SDS011;64115;50.170;8.242;2023-12-28T14:03:48;2.30;;;2.10;;
8260;SDS011;64115;50.170;8.242;2023-12-28T14:06:16;2.60;;;2.10;;
8260;SDS011;64115;50.170;8.242;2023-12-28T14:08:44;3.53;;;2.00;;
8260;SDS011;64115;50.170;8.242;2023-12-28T14:11:11;2.47;;;2.10;;
8260;SDS011;64115;50.170;8.242;2023-12-28T14:13:38;3.90;;;2.57;;
8260;SDS011;64115;50.170;8.242;2023-12-28T14:16:05;4.47;;;2.37;;
8260;SDS011;64115;50.170;8.242;2023-12-28T14:18:34;3.10;;;2.07;;
8260;SDS011;64115;50.170;8.242;2023-12-28T14:21:02;2.53;;;2.20;;
8260;SDS011;64115;50.170;8.242;2023-12-28T14:23:29;3.27;;;2.50;;
8260;SDS011;64115;50.170;8.242;2023-12-28T14:25:57;2.57;;;2.37;;
8260;SDS011;64115;50.170;8.242;2023-12-28T14:28:24;3.53;;;2.53;;
8260;SDS011;64115;50.170;8.242;2023-12-28T14:30:51;3.17;;;2.30;;
8260;SDS011;64115;50.170;8.242;2023-12-28T14:33:19;3.00;;;2.03;;
8260;SDS011;64115;50.170;8.242;2023-12-28T14:35:48;2.73;;;2.30;;
8260;SDS011;64115;50.170;8.242;2023-12-28T14:38:15;2.30;;;2.10;;
8260;SDS011;64115;50.170;8.242;2023-12-28T14:40:42;3.33;;;2.10;;
8260;SDS011;64115;50.170;8.242;2023-12-28T14:43:09;3.27;;;2.00;;
8260;SDS011;64115;50.170;8.242;2023-12-28T14:45:36;2.13;;;2.00;;
8260;SDS011;64115;50.170;8.242;2023-12-28T14:48:03;3.23;;;2.00;;
8260;SDS011;64115;50.170;8.242;2023-12-28T14:50:30;2.30;;;2.10;;
8260;SDS011;64115;50.170;8.242;2023-12-28T14:52:58;1.50;;;1.50;;
8260;SDS011;64115;50.170;8.242;2023-12-28T14:55:25;17.87;;;2.00;;
8260;SDS011;64115;50.170;8.242;2023-12-28T14:57:52;1.77;;;1.67;;
8260;SDS011;64115;50.170;8.242;2023-12-28T15:00:19;1.67;;;1.50;;
8260;SDS011;64115;50.170;8.242;2023-12-28T15:02:46;1.53;;;1.43;;